createdAt,value
2022-12-23T00:01:09.677Z,100221.19
2022-12-23T00:03:41.869Z,100238.09
2022-12-23T00:06:10.796Z,100216.72
2022-12-23T00:08:38.479Z,100241.03
2022-12-23T00:11:19.056Z,100243.19
2022-12-23T00:13:48.485Z,100226.50
2022-12-23T00:16:18.617Z,100243.16
2022-12-23T00:18:48.092Z,100220.91
2022-12-23T00:21:17.175Z,100209.31
2022-12-23T00:23:46.358Z,100201.06
2022-12-23T00:26:15.750Z,100222.22
2022-12-23T00:28:49.196Z,100234.38
2022-12-23T00:31:19.811Z,100206.13
2022-12-23T00:33:48.553Z,100211.25
2022-12-23T00:36:23.382Z,100221.69
2022-12-23T00:38:52.625Z,100222.56
2022-12-23T00:41:23.316Z,100212.31
2022-12-23T00:43:57.341Z,100231.84
2022-12-23T00:46:29.881Z,100242.56
2022-12-23T00:48:59.039Z,100224.47
2022-12-23T00:51:31.258Z,100241.75
2022-12-23T00:54:01.143Z,100213.41
2022-12-23T00:56:40.000Z,100231.03
2022-12-23T00:59:09.468Z,100233.75
2022-12-23T01:01:37.597Z,100239.41
2022-12-23T01:04:04.799Z,100239.47
2022-12-23T01:06:31.504Z,100254.72
2022-12-23T01:08:58.194Z,100254.38
2022-12-23T01:11:24.869Z,100257.66
2022-12-23T01:13:51.559Z,100252.84
2022-12-23T01:16:18.364Z,100242.25
2022-12-23T01:18:46.436Z,100232.69
2022-12-23T01:21:13.513Z,100223.03
2022-12-23T01:23:40.203Z,100230.19
2022-12-23T01:26:08.438Z,100237.47
2022-12-23T01:28:35.811Z,100237.16
2022-12-23T01:31:04.455Z,100249.16
2022-12-23T01:33:42.998Z,100241.13
2022-12-23T01:36:22.548Z,100215.28
2022-12-23T01:38:49.977Z,100206.13
2022-12-23T01:41:18.585Z,100225.59
2022-12-23T01:46:35.569Z,100212.78
2022-12-23T01:49:07.712Z,100201.63
2022-12-23T01:51:36.910Z,100209.28
2022-12-23T01:54:14.741Z,100189.16
2022-12-23T01:56:41.417Z,100197.19
2022-12-23T01:59:11.925Z,100187.06
2022-12-23T02:01:38.724Z,100191.19
2022-12-23T02:04:07.246Z,100198.94
2022-12-23T02:06:37.690Z,100201.03
2022-12-23T02:09:11.404Z,100178.47
2022-12-23T02:12:04.352Z,100191.59
2022-12-23T02:14:43.658Z,100182.47
2022-12-23T02:17:20.244Z,100199.91
2022-12-23T02:20:21.643Z,100197.00
2022-12-23T02:23:12.469Z,100185.16
2022-12-23T02:26:08.436Z,100187.13
2022-12-23T02:29:06.727Z,100184.94
2022-12-23T02:31:42.961Z,100193.88
2022-12-23T02:34:15.899Z,100193.34
2022-12-23T02:36:49.669Z,100200.34
2022-12-23T02:39:22.110Z,100203.19
2022-12-23T02:41:58.129Z,100204.19
2022-12-23T02:44:31.551Z,100193.06
2022-12-23T02:47:04.319Z,100188.00
2022-12-23T02:49:33.772Z,100170.38
2022-12-23T02:52:05.295Z,100191.41
2022-12-23T02:54:37.004Z,100165.47
2022-12-23T02:57:07.604Z,100162.75
2022-12-23T02:59:39.089Z,100152.50
2022-12-23T03:02:07.282Z,100182.16
2022-12-23T03:04:34.038Z,100171.81
2022-12-23T03:07:07.369Z,100170.63
2022-12-23T03:09:44.802Z,100177.03
2022-12-23T03:12:22.449Z,100158.16
2022-12-23T03:15:15.070Z,100154.09
2022-12-23T03:17:56.690Z,100165.66
2022-12-23T03:20:28.873Z,100162.75
2022-12-23T03:23:03.557Z,100177.09
2022-12-23T03:25:35.905Z,100165.97
2022-12-23T03:28:10.254Z,100160.66
2022-12-23T03:30:40.409Z,100152.97
2022-12-23T03:33:13.488Z,100164.50
2022-12-23T03:35:44.288Z,100157.63
2022-12-23T03:38:14.947Z,100152.25
2022-12-23T03:40:45.026Z,100145.47
2022-12-23T03:43:16.235Z,100161.88
2022-12-23T03:45:53.256Z,100157.34
2022-12-23T03:48:34.113Z,100145.44
2022-12-23T03:51:04.812Z,100125.63
2022-12-23T03:53:37.016Z,100120.69
2022-12-23T03:56:12.577Z,100128.78
2022-12-23T03:58:58.788Z,100136.19
2022-12-23T04:01:33.523Z,100143.06
2022-12-23T04:04:12.331Z,100114.88
2022-12-23T04:06:47.775Z,100124.91
2022-12-23T04:09:22.203Z,100109.00
2022-12-23T04:11:54.856Z,100105.38
2022-12-23T04:14:30.526Z,100100.59
2022-12-23T04:16:58.022Z,100095.03
2022-12-23T04:19:26.109Z,100118.78
2022-12-23T04:21:54.053Z,100118.84
2022-12-23T04:24:20.727Z,100114.97
2022-12-23T04:26:47.361Z,100105.09
2022-12-23T04:29:16.254Z,100125.09
2022-12-23T04:31:42.923Z,100129.88
2022-12-23T04:34:09.682Z,100130.31
2022-12-23T04:36:37.695Z,100135.22
2022-12-23T04:39:04.444Z,100125.03
2022-12-23T04:41:31.186Z,100119.22
2022-12-23T04:43:57.849Z,100135.88
2022-12-23T04:46:24.613Z,100122.88
2022-12-23T04:48:51.293Z,100133.34
2022-12-23T04:51:18.016Z,100122.22
2022-12-23T04:53:46.054Z,100112.41
2022-12-23T04:56:12.800Z,100120.47
2022-12-23T04:58:39.477Z,100106.94
2022-12-23T05:01:08.809Z,100082.28
2022-12-23T05:03:35.998Z,100083.69
2022-12-23T05:06:02.938Z,100096.34
2022-12-23T05:08:30.029Z,100096.84
2022-12-23T05:10:58.269Z,100094.72
2022-12-23T05:13:25.338Z,100113.81
2022-12-23T05:15:53.744Z,100106.47
2022-12-23T05:18:21.549Z,100103.72
2022-12-23T05:20:49.040Z,100093.81
2022-12-23T05:23:15.883Z,100096.34
2022-12-23T05:25:42.588Z,100092.22
2022-12-23T05:28:10.773Z,100084.41
2022-12-23T05:30:37.512Z,100089.81
2022-12-23T05:33:04.369Z,100088.09
2022-12-23T05:35:31.085Z,100084.53
2022-12-23T05:37:58.020Z,100073.13
2022-12-23T05:40:29.501Z,100091.72
2022-12-23T05:42:58.105Z,100104.25
2022-12-23T05:45:26.299Z,100099.63
2022-12-23T05:47:53.073Z,100114.00
2022-12-23T05:50:19.688Z,100109.25
2022-12-23T05:52:46.344Z,100123.78
2022-12-23T05:55:12.988Z,100126.66
2022-12-23T05:57:39.636Z,100129.59
2022-12-23T06:00:07.625Z,100110.31
2022-12-23T06:02:35.799Z,100123.31
2022-12-23T06:05:02.646Z,100127.47
2022-12-23T06:07:29.319Z,100131.97
2022-12-23T06:09:55.976Z,100145.97
2022-12-23T06:12:22.636Z,100144.31
2022-12-23T06:14:49.325Z,100130.44
2022-12-23T06:17:16.008Z,100146.44
2022-12-23T06:19:44.011Z,100135.75
2022-12-23T06:22:10.779Z,100146.38
2022-12-23T06:24:37.453Z,100157.78
2022-12-23T06:27:04.279Z,100158.78
2022-12-23T06:29:33.263Z,100152.41
2022-12-23T06:32:01.896Z,100127.94
2022-12-23T06:34:33.714Z,100133.56
2022-12-23T06:37:09.021Z,100141.88
2022-12-23T06:39:38.801Z,100142.13
2022-12-23T06:42:18.725Z,100116.63
2022-12-23T06:45:05.909Z,100118.13
2022-12-23T06:47:40.488Z,100102.38
2022-12-23T06:50:35.402Z,100116.53
2022-12-23T06:53:21.209Z,100122.69
2022-12-23T06:56:12.413Z,100134.13
2022-12-23T06:59:01.420Z,100155.78
2022-12-23T09:06:36.756Z,100150.88
2022-12-23T09:22:58.219Z,100146.47
2022-12-23T19:15:20.031Z,100009.81
2022-12-23T19:46:31.716Z,99994.69
2022-12-23T19:49:51.382Z,99994.19
2022-12-23T19:53:02.523Z,100015.41
2022-12-23T19:55:50.938Z,100020.53
2022-12-23T19:58:47.074Z,100024.22
2022-12-23T20:02:02.429Z,100017.44
2022-12-23T20:05:12.724Z,100016.88
2022-12-23T20:08:29.722Z,100009.34
2022-12-23T20:11:29.606Z,100012.25
2022-12-23T20:17:54.265Z,100026.53
2022-12-23T20:20:45.501Z,100023.63
2022-12-23T20:26:47.945Z,100017.94
2022-12-23T20:29:31.097Z,100023.44
2022-12-23T20:36:16.792Z,100025.19
2022-12-23T20:39:05.397Z,100041.41
2022-12-23T20:41:50.202Z,100019.88
2022-12-23T20:44:34.493Z,100029.44
2022-12-23T20:51:06.907Z,100032.34
2022-12-23T20:57:20.427Z,100041.31
2022-12-23T20:59:49.929Z,99998.53
2022-12-23T21:02:30.165Z,100023.53
2022-12-23T21:05:48.155Z,100009.50
2022-12-23T21:08:17.892Z,99999.25
2022-12-23T21:10:58.187Z,99971.75
2022-12-23T21:13:42.668Z,99992.31
2022-12-23T21:16:11.985Z,99997.28
2022-12-23T21:18:41.199Z,100025.38
2022-12-23T21:21:18.632Z,100016.38
2022-12-23T21:23:55.431Z,100002.00
2022-12-23T21:26:31.145Z,100028.47
2022-12-23T21:29:21.397Z,100011.06
2022-12-23T21:31:58.262Z,100009.13
2022-12-23T21:34:25.309Z,100006.34
2022-12-23T21:37:01.895Z,100031.25
2022-12-23T21:39:28.990Z,100017.03
2022-12-23T21:42:01.011Z,100018.22
2022-12-23T21:44:57.341Z,100015.72
2022-12-23T21:48:23.322Z,100012.03
2022-12-23T22:15:35.295Z,100014.53
2022-12-23T22:18:46.193Z,100014.91
2022-12-23T22:41:38.693Z,99996.28
2022-12-23T22:44:10.413Z,100011.03
2022-12-23T22:46:46.919Z,99995.22
2022-12-23T22:52:28.200Z,100015.38
2022-12-23T22:55:36.052Z,100017.72
2022-12-23T22:58:38.815Z,99995.81
2022-12-23T23:02:06.663Z,100003.63
2022-12-23T23:08:07.687Z,99993.88
2022-12-23T23:10:48.803Z,99990.00
2022-12-23T23:13:34.404Z,99973.28
2022-12-23T23:16:22.448Z,99991.47
2022-12-23T23:19:06.656Z,99977.25
2022-12-23T23:28:42.635Z,100004.41
2022-12-23T23:34:33.356Z,99969.25
2022-12-23T23:37:22.628Z,99995.81
2022-12-23T23:40:23.264Z,99961.81
2022-12-23T23:43:17.036Z,99962.22
2022-12-23T23:46:10.956Z,99950.00
2022-12-23T23:48:41.064Z,99964.44
2022-12-23T23:51:13.772Z,99967.41
2022-12-23T23:57:02.360Z,99978.44
2022-12-23T23:59:49.649Z,99990.25
